createdAt,value
2022-12-24T00:01:42.971Z,97819.00
2022-12-24T00:04:30.669Z,97818.00
2022-12-24T00:07:18.131Z,97818.00
2022-12-24T00:10:07.210Z,97814.00
2022-12-24T00:12:54.698Z,97816.00
2022-12-24T00:15:42.274Z,97819.00
2022-12-24T00:18:29.971Z,97822.00
2022-12-24T00:21:17.954Z,97823.00
2022-12-24T00:24:06.104Z,97833.00
2022-12-24T00:26:53.628Z,97835.00
2022-12-24T00:29:41.172Z,97839.00
2022-12-24T00:32:28.733Z,97839.00
2022-12-24T00:35:16.436Z,97843.00
2022-12-24T00:38:05.083Z,97857.00
2022-12-24T00:40:52.625Z,97850.00
2022-12-24T00:43:40.169Z,97853.00
2022-12-24T00:46:30.035Z,97856.00
2022-12-24T00:49:17.734Z,97865.00
2022-12-24T00:52:05.548Z,97868.00
2022-12-24T00:54:53.177Z,97856.00
2022-12-24T00:57:40.709Z,97865.00
2022-12-24T01:00:28.340Z,97873.00
2022-12-24T01:03:15.966Z,97872.00
2022-12-24T01:06:10.291Z,97868.00
2022-12-24T01:08:57.823Z,97883.00
2022-12-24T01:11:46.423Z,97872.00
2022-12-24T01:14:33.959Z,97877.00
2022-12-24T01:17:22.043Z,97885.00
2022-12-24T01:20:14.942Z,97877.00
2022-12-24T01:23:02.481Z,97885.00
2022-12-24T01:25:50.047Z,97887.00
2022-12-24T01:28:37.663Z,97895.00
2022-12-24T01:31:25.251Z,97896.00
2022-12-24T01:34:12.843Z,97900.00
2022-12-24T01:37:00.460Z,97896.00
2022-12-24T01:39:47.947Z,97897.00
2022-12-24T01:42:54.225Z,97905.00
2022-12-24T01:45:50.889Z,97906.00
2022-12-24T01:48:43.143Z,97917.00
2022-12-24T01:51:36.068Z,97922.00
2022-12-24T01:54:32.407Z,97937.00
2022-12-24T01:57:30.438Z,97931.00
2022-12-24T02:00:18.960Z,97932.00
2022-12-24T02:03:07.194Z,97933.00
2022-12-24T02:05:59.364Z,97925.00
2022-12-24T02:08:47.179Z,97918.00
2022-12-24T02:11:38.977Z,97921.00
2022-12-24T02:14:32.341Z,97928.00
2022-12-24T02:17:34.719Z,97927.00
2022-12-24T02:21:25.519Z,97938.00
2022-12-24T02:24:12.938Z,97938.00
2022-12-24T02:27:51.376Z,97933.00
2022-12-24T02:30:57.188Z,97932.00
2022-12-24T02:34:04.839Z,97941.00
2022-12-24T02:37:11.031Z,97948.00
2022-12-24T02:40:15.975Z,97956.00
2022-12-24T02:43:13.263Z,97961.00
2022-12-24T02:46:11.866Z,97977.00
2022-12-24T02:49:01.099Z,97996.00
2022-12-24T02:51:48.533Z,97988.00
2022-12-24T02:54:36.214Z,98006.00
2022-12-24T02:57:32.456Z,97983.00
2022-12-24T03:00:22.492Z,97987.00
2022-12-24T03:03:38.791Z,97995.00
2022-12-24T03:07:13.090Z,97999.00
2022-12-24T03:11:05.366Z,98002.00
2022-12-24T03:13:57.874Z,97993.00
2022-12-24T03:16:46.945Z,98002.00
2022-12-24T03:19:35.715Z,98003.00
2022-12-24T03:22:25.420Z,97998.00
2022-12-24T03:25:12.993Z,98001.00
2022-12-24T03:28:06.230Z,98007.00
2022-12-24T03:30:54.710Z,97991.00
2022-12-24T03:33:42.793Z,97999.00
2022-12-24T03:36:30.926Z,98013.00
2022-12-24T03:39:18.521Z,98025.00
2022-12-24T03:42:06.124Z,98027.00
2022-12-24T03:44:53.685Z,98032.00
2022-12-24T03:47:41.234Z,98028.00
2022-12-24T03:50:28.841Z,98036.00
2022-12-24T03:53:16.333Z,98040.00
2022-12-24T03:56:04.103Z,98026.00
2022-12-24T03:58:52.229Z,98048.00
2022-12-24T04:01:40.022Z,98041.00
2022-12-24T04:04:27.602Z,98056.00
2022-12-24T04:07:15.197Z,98050.00
2022-12-24T04:10:02.808Z,98053.00
2022-12-24T04:12:50.351Z,98049.00
2022-12-24T04:15:37.947Z,98048.00
2022-12-24T04:18:26.190Z,98070.00
2022-12-24T04:21:14.123Z,98122.00
2022-12-24T04:24:01.839Z,98136.00
2022-12-24T04:26:49.359Z,98171.00
2022-12-24T04:29:36.923Z,98164.00
2022-12-24T04:32:27.162Z,98157.00
2022-12-24T04:35:14.784Z,98153.00
2022-12-24T04:38:02.328Z,98166.00
2022-12-24T04:40:57.898Z,98175.00
2022-12-24T04:43:46.208Z,98164.00
2022-12-24T04:46:33.881Z,98171.00
2022-12-24T04:49:21.433Z,98167.00
2022-12-24T04:52:09.062Z,98170.00
2022-12-24T04:54:56.678Z,98180.00
2022-12-24T04:57:48.387Z,98194.00
2022-12-24T05:00:39.423Z,98190.00
2022-12-24T05:03:28.037Z,98192.00
2022-12-24T05:06:22.769Z,98184.00
2022-12-24T05:09:10.337Z,98187.00
2022-12-24T05:11:57.906Z,98177.00
2022-12-24T05:14:45.458Z,98184.00
2022-12-24T05:17:33.024Z,98187.00
2022-12-24T05:20:20.645Z,98193.00
2022-12-24T05:23:28.070Z,98184.00
2022-12-24T05:26:24.289Z,98182.00
2022-12-24T05:29:13.370Z,98177.00
2022-12-24T05:32:00.865Z,98170.00
2022-12-24T05:34:48.544Z,98196.00
2022-12-24T05:37:36.213Z,98203.00
2022-12-24T05:40:23.825Z,98195.00
2022-12-24T05:43:11.354Z,98195.00
2022-12-24T05:46:01.392Z,98190.00
2022-12-24T05:48:50.484Z,98182.00
2022-12-24T05:51:38.397Z,98186.00
2022-12-24T05:54:25.925Z,98177.00
2022-12-24T05:57:13.552Z,98161.00
2022-12-24T06:00:01.086Z,98162.00
2022-12-24T06:02:48.792Z,98178.00
2022-12-24T06:05:37.310Z,98183.00
2022-12-24T06:08:24.858Z,98201.00
2022-12-24T06:11:16.006Z,98216.00
2022-12-24T06:14:04.549Z,98231.00
2022-12-24T06:16:52.326Z,98239.00
2022-12-24T06:19:39.874Z,98250.00
2022-12-24T06:22:27.492Z,98244.00
2022-12-24T06:25:15.155Z,98242.00
2022-12-24T06:28:02.691Z,98224.00
2022-12-24T06:30:52.770Z,98224.00
2022-12-24T06:33:43.614Z,98226.00
2022-12-24T06:36:31.276Z,98225.00
2022-12-24T06:39:18.819Z,98234.00
2022-12-24T06:42:06.389Z,98233.00
2022-12-24T06:44:53.918Z,98236.00
2022-12-24T06:47:41.503Z,98239.00
2022-12-24T06:50:29.467Z,98237.00
2022-12-24T06:53:17.136Z,98258.00
2022-12-24T06:56:11.398Z,98256.00
2022-12-24T06:59:05.122Z,98257.00
2022-12-24T07:01:53.170Z,98264.00
2022-12-24T07:04:40.808Z,98275.00
2022-12-24T07:07:28.561Z,98279.00
2022-12-24T07:10:19.040Z,98285.00
2022-12-24T07:13:06.576Z,98271.00
2022-12-24T07:16:08.983Z,98279.00
2022-12-24T07:18:56.882Z,98283.00
2022-12-24T07:21:44.491Z,98295.00
2022-12-24T07:24:31.988Z,98296.00
2022-12-24T07:27:19.731Z,98303.00
2022-12-24T07:30:09.311Z,98312.00
2022-12-24T07:32:56.860Z,98313.00
2022-12-24T07:35:44.465Z,98316.00
2022-12-24T07:38:33.142Z,98322.00
2022-12-24T07:41:21.141Z,98320.00
2022-12-24T07:44:13.956Z,98330.00
2022-12-24T07:47:01.566Z,98335.00
2022-12-24T07:49:49.156Z,98340.00
2022-12-24T07:52:36.752Z,98349.00
2022-12-24T07:55:24.356Z,98349.00
2022-12-24T07:58:11.965Z,98351.00
2022-12-24T08:01:00.914Z,98348.00
2022-12-24T08:03:48.574Z,98356.00
2022-12-24T08:06:36.449Z,98360.00
2022-12-24T08:09:23.956Z,98367.00
2022-12-24T08:12:11.554Z,98373.00
2022-12-24T08:14:59.091Z,98373.00
2022-12-24T08:17:46.624Z,98385.00
2022-12-24T08:20:34.293Z,98397.00
2022-12-24T08:23:21.830Z,98404.00
2022-12-24T08:26:12.235Z,98414.00
2022-12-24T08:28:59.794Z,98415.00
2022-12-24T08:31:47.387Z,98423.00
2022-12-24T08:34:34.916Z,98432.00
2022-12-24T08:37:22.561Z,98442.00
2022-12-24T08:40:11.524Z,98440.00
2022-12-24T08:42:59.076Z,98447.00
2022-12-24T08:45:49.673Z,98446.00
2022-12-24T08:48:37.602Z,98447.00
2022-12-24T08:51:25.153Z,98448.00
2022-12-24T08:54:12.636Z,98440.00
2022-12-24T08:57:00.188Z,98440.00
2022-12-24T08:59:47.820Z,98451.00
2022-12-24T09:02:37.053Z,98454.00
2022-12-24T09:05:26.203Z,98460.00
2022-12-24T09:08:14.320Z,98466.00
2022-12-24T09:11:16.576Z,98474.00
2022-12-24T09:14:04.338Z,98474.00
2022-12-24T09:16:51.964Z,98471.00
2022-12-24T09:19:39.842Z,98475.00
2022-12-24T09:22:27.292Z,98457.00
2022-12-24T09:25:14.952Z,98454.00
2022-12-24T09:28:02.455Z,98462.00
2022-12-24T09:31:02.648Z,98457.00
2022-12-24T09:33:51.767Z,98466.00
2022-12-24T09:36:39.411Z,98473.00
2022-12-24T09:39:26.938Z,98475.00
2022-12-24T09:42:33.965Z,98469.00
2022-12-24T09:45:33.031Z,98473.00
2022-12-24T09:48:31.548Z,98469.00
2022-12-24T09:51:36.647Z,98470.00
2022-12-24T09:54:30.929Z,98466.00
2022-12-24T09:57:30.159Z,98465.00
2022-12-24T10:00:30.697Z,98470.00
2022-12-24T10:03:19.150Z,98476.00
2022-12-24T10:06:22.210Z,98467.00
2022-12-24T10:10:03.542Z,98487.00
2022-12-24T10:13:30.899Z,98505.00
2022-12-24T10:16:43.132Z,98488.00
2022-12-24T10:20:03.696Z,98499.00
2022-12-24T10:23:36.481Z,98504.00
2022-12-24T10:26:45.321Z,98505.00
2022-12-24T10:29:45.375Z,98502.00
2022-12-24T10:32:35.700Z,98516.00
2022-12-24T10:35:29.342Z,98521.00
2022-12-24T10:38:16.933Z,98522.00
2022-12-24T10:41:04.542Z,98525.00
2022-12-24T10:43:53.320Z,98522.00
2022-12-24T10:46:41.804Z,98529.00
2022-12-24T10:50:04.847Z,98531.00
2022-12-24T10:52:59.674Z,98520.00
2022-12-24T10:55:49.299Z,98519.00
2022-12-24T10:58:37.086Z,98521.00
2022-12-24T11:01:46.988Z,98515.00
2022-12-24T11:04:49.633Z,98522.00
2022-12-24T11:07:37.192Z,98513.00
2022-12-24T11:10:24.860Z,98527.00
2022-12-24T11:13:40.221Z,98521.00
2022-12-24T11:16:36.928Z,98526.00
2022-12-24T11:19:35.408Z,98522.00
2022-12-24T11:22:30.647Z,98527.00
2022-12-24T11:25:31.828Z,98511.00
2022-12-24T11:28:37.412Z,98516.00
2022-12-24T11:31:26.131Z,98518.00
2022-12-24T11:34:32.947Z,98521.00
2022-12-24T11:37:25.396Z,98527.00
2022-12-24T11:40:26.670Z,98519.00
2022-12-24T11:43:22.282Z,98523.00
2022-12-24T11:46:41.649Z,98521.00
2022-12-24T11:49:32.163Z,98526.00
2022-12-24T11:52:25.381Z,98527.00
2022-12-24T11:55:50.020Z,98513.00
2022-12-24T11:58:53.989Z,98510.00
2022-12-24T12:01:49.639Z,98516.00
2022-12-24T12:04:39.421Z,98506.00
2022-12-24T12:07:36.025Z,98506.00
2022-12-24T12:10:31.949Z,98499.00
2022-12-24T12:13:33.437Z,98493.00
2022-12-24T12:16:52.788Z,98509.00
2022-12-24T12:19:58.956Z,98507.00
2022-12-24T12:23:03.993Z,98509.00
2022-12-24T12:26:10.585Z,98512.00
2022-12-24T12:29:45.127Z,98509.00
2022-12-24T12:33:17.059Z,98516.00
2022-12-24T12:36:06.976Z,98519.00
2022-12-24T12:38:54.653Z,98520.00
2022-12-24T12:42:34.446Z,98529.00
2022-12-24T12:45:30.856Z,98529.00
2022-12-24T12:48:34.803Z,98530.00
2022-12-24T12:51:41.517Z,98527.00
2022-12-24T12:54:56.158Z,98524.00
2022-12-24T12:57:47.608Z,98530.00
2022-12-24T13:00:42.061Z,98537.00
2022-12-24T13:04:01.874Z,98541.00
2022-12-24T13:06:58.313Z,98539.00
2022-12-24T13:10:04.517Z,98542.00
2022-12-24T13:13:09.588Z,98539.00
2022-12-24T13:16:14.338Z,98536.00
2022-12-24T13:19:31.557Z,98546.00
2022-12-24T13:22:23.363Z,98554.00
2022-12-24T13:25:26.567Z,98554.00
2022-12-24T13:28:32.284Z,98545.00
2022-12-24T13:31:20.005Z,98547.00
2022-12-24T13:34:37.108Z,98543.00
2022-12-24T13:37:35.074Z,98547.00
2022-12-24T13:40:27.794Z,98551.00
2022-12-24T13:43:15.600Z,98548.00
2022-12-24T13:46:03.707Z,98550.00
2022-12-24T13:48:51.669Z,98553.00
2022-12-24T13:51:39.370Z,98554.00
2022-12-24T13:54:28.701Z,98544.00
2022-12-24T13:57:45.577Z,98542.00
2022-12-24T14:00:53.388Z,98546.00
2022-12-24T14:03:57.709Z,98554.00
2022-12-24T14:06:53.526Z,98550.00
2022-12-24T14:09:51.301Z,98562.00
2022-12-24T14:12:59.284Z,98562.00
2022-12-24T14:15:49.836Z,98563.00
2022-12-24T14:18:45.564Z,98569.00
2022-12-24T14:21:38.660Z,98569.00
2022-12-24T14:24:35.133Z,98567.00
2022-12-24T14:27:43.628Z,98576.00
2022-12-24T14:30:32.890Z,98575.00
2022-12-24T14:33:35.444Z,98587.00
2022-12-24T14:36:24.619Z,98594.00
2022-12-24T14:39:26.468Z,98598.00
2022-12-24T14:42:44.134Z,98598.00
2022-12-24T14:45:52.039Z,98605.00
2022-12-24T14:49:11.405Z,98604.00
2022-12-24T14:53:04.800Z,98611.00
2022-12-24T14:55:51.696Z,98615.00
2022-12-24T14:58:40.785Z,98620.00
2022-12-24T15:01:34.450Z,98616.00
2022-12-24T15:04:22.250Z,98620.00
2022-12-24T15:07:12.165Z,98615.00
2022-12-24T15:10:00.383Z,98624.00
2022-12-24T15:12:48.381Z,98633.00
2022-12-24T15:15:36.793Z,98640.00
2022-12-24T15:18:33.163Z,98638.00
2022-12-24T15:21:30.641Z,98644.00
2022-12-24T15:24:34.522Z,98637.00
2022-12-24T15:27:33.144Z,98643.00
2022-12-24T15:30:26.368Z,98645.00
2022-12-24T15:33:14.081Z,98643.00
2022-12-24T15:36:02.531Z,98650.00
2022-12-24T15:38:54.751Z,98645.00
2022-12-24T15:42:03.995Z,98654.00
2022-12-24T15:45:08.638Z,98656.00
2022-12-24T15:48:01.838Z,98654.00
2022-12-24T15:51:01.525Z,98660.00
2022-12-24T15:53:50.142Z,98669.00
2022-12-24T15:56:44.497Z,98676.00
2022-12-24T15:59:38.615Z,98678.00
2022-12-24T16:02:45.830Z,98672.00
2022-12-24T16:05:36.946Z,98671.00
2022-12-24T16:08:29.881Z,98675.00
2022-12-24T16:11:21.467Z,98677.00
2022-12-24T16:14:19.566Z,98670.00
2022-12-24T16:17:23.836Z,98664.00
2022-12-24T16:20:21.476Z,98675.00
2022-12-24T16:23:23.067Z,98674.00
2022-12-24T16:26:10.620Z,98672.00
2022-12-24T16:28:58.487Z,98676.00
2022-12-24T16:31:54.740Z,98673.00
2022-12-24T16:34:42.883Z,98675.00
2022-12-24T16:37:30.510Z,98674.00
2022-12-24T16:40:23.307Z,98674.00
2022-12-24T16:43:32.805Z,98683.00
2022-12-24T16:46:20.486Z,98684.00
2022-12-24T16:49:23.414Z,98687.00
2022-12-24T16:52:26.394Z,98694.00
2022-12-24T16:55:14.867Z,98689.00
2022-12-24T16:58:02.551Z,98679.00
2022-12-24T17:00:50.307Z,98689.00
2022-12-24T17:03:38.047Z,98694.00
2022-12-24T17:06:25.727Z,98705.00
2022-12-24T17:09:13.584Z,98703.00
2022-12-24T17:12:01.158Z,98707.00
2022-12-24T17:14:48.997Z,98710.00
2022-12-24T17:17:37.190Z,98716.00
2022-12-24T17:20:24.960Z,98724.00
2022-12-24T17:23:12.952Z,98722.00
2022-12-24T17:26:02.599Z,98721.00
2022-12-24T17:28:57.398Z,98723.00
2022-12-24T17:31:45.145Z,98714.00
2022-12-24T17:34:33.277Z,98713.00
2022-12-24T17:37:20.938Z,98725.00
2022-12-24T17:40:09.914Z,98728.00
2022-12-24T17:42:58.257Z,98719.00
2022-12-24T17:45:45.823Z,98718.00
2022-12-24T17:48:34.114Z,98718.00
2022-12-24T17:51:24.139Z,98715.00
2022-12-24T17:54:11.979Z,98717.00
2022-12-24T17:56:59.591Z,98722.00
2022-12-24T17:59:47.248Z,98720.00
2022-12-24T18:02:35.024Z,98724.00
2022-12-24T18:05:25.641Z,98722.00
2022-12-24T18:08:14.963Z,98730.00
2022-12-24T18:11:16.860Z,98731.00
2022-12-24T18:14:06.276Z,98735.00
2022-12-24T18:16:54.158Z,98733.00
2022-12-24T18:19:41.791Z,98735.00
2022-12-24T18:22:29.526Z,98734.00
2022-12-24T18:25:17.359Z,98734.00
2022-12-24T18:28:05.179Z,98746.00
2022-12-24T18:31:19.137Z,98744.00
2022-12-24T18:34:13.004Z,98739.00
2022-12-24T18:37:00.628Z,98744.00
2022-12-24T18:39:48.267Z,98750.00
2022-12-24T18:42:36.239Z,98755.00
2022-12-24T18:45:23.847Z,98760.00
2022-12-24T18:48:13.027Z,98765.00
2022-12-24T18:51:02.199Z,98757.00
2022-12-24T18:53:50.844Z,98762.00
2022-12-24T18:56:38.787Z,98765.00
2022-12-24T18:59:26.529Z,98769.00
2022-12-24T19:02:14.164Z,98768.00
2022-12-24T19:05:01.838Z,98781.00
2022-12-24T19:07:49.478Z,98774.00
2022-12-24T19:10:38.711Z,98784.00
2022-12-24T19:13:26.550Z,98784.00
2022-12-24T19:16:15.335Z,98788.00
2022-12-24T19:19:05.661Z,98784.00
2022-12-24T19:21:53.198Z,98786.00
2022-12-24T19:24:40.797Z,98786.00
2022-12-24T19:27:28.453Z,98781.00
2022-12-24T19:30:16.143Z,98780.00
2022-12-24T19:33:04.019Z,98792.00
2022-12-24T19:35:51.654Z,98791.00
2022-12-24T19:38:39.522Z,98797.00
2022-12-24T19:41:30.629Z,98795.00
2022-12-24T19:44:18.176Z,98780.00
2022-12-24T19:47:05.781Z,98795.00
2022-12-24T19:49:53.598Z,98806.00
2022-12-24T19:52:41.238Z,98811.00
2022-12-24T19:55:29.060Z,98807.00
2022-12-24T19:58:16.697Z,98807.00
2022-12-24T20:01:15.548Z,98804.00
2022-12-24T20:04:04.285Z,98809.00
2022-12-24T20:06:57.884Z,98820.00
2022-12-24T20:09:48.121Z,98827.00
2022-12-24T20:12:35.745Z,98832.00
2022-12-24T20:15:23.489Z,98831.00
2022-12-24T20:18:14.219Z,98834.00
2022-12-24T20:21:05.348Z,98830.00
2022-12-24T20:23:53.899Z,98830.00
2022-12-24T20:26:41.747Z,98831.00
2022-12-24T20:29:29.531Z,98842.00
2022-12-24T20:32:17.574Z,98839.00
2022-12-24T20:35:06.078Z,98839.00
2022-12-24T20:37:53.818Z,98846.00
2022-12-24T20:40:46.659Z,98851.00
2022-12-24T20:43:38.341Z,98861.00
2022-12-24T20:46:28.487Z,98853.00
2022-12-24T20:49:16.531Z,98846.00
2022-12-24T20:52:04.275Z,98847.00
2022-12-24T20:54:51.871Z,98836.00
2022-12-24T20:57:40.615Z,98850.00
2022-12-24T21:00:28.700Z,98847.00
2022-12-24T21:03:18.563Z,98843.00
2022-12-24T21:06:06.709Z,98838.00
2022-12-24T21:08:55.306Z,98826.00
2022-12-24T21:11:52.073Z,98842.00
2022-12-24T21:14:39.804Z,98834.00
2022-12-24T21:17:29.754Z,98819.00
2022-12-24T21:20:17.983Z,98835.00
2022-12-24T21:23:06.612Z,98848.00
2022-12-24T21:26:04.522Z,98844.00
2022-12-24T21:28:53.330Z,98847.00
2022-12-24T21:31:41.432Z,98844.00
2022-12-24T21:34:29.429Z,98847.00
2022-12-24T21:37:17.194Z,98838.00
2022-12-24T21:40:07.069Z,98830.00
2022-12-24T21:42:54.880Z,98839.00
2022-12-24T21:45:42.613Z,98843.00
2022-12-24T21:48:48.876Z,98836.00
2022-12-24T21:51:37.508Z,98840.00
2022-12-24T21:54:30.533Z,98830.00
2022-12-24T21:57:36.834Z,98834.00
2022-12-24T22:00:27.040Z,98846.00
2022-12-24T22:03:15.013Z,98858.00
2022-12-24T22:06:02.687Z,98851.00
2022-12-24T22:09:08.692Z,98857.00
2022-12-24T22:11:56.424Z,98855.00
2022-12-24T22:14:44.072Z,98853.00
2022-12-24T22:17:31.892Z,98856.00
2022-12-24T22:20:19.749Z,98847.00
2022-12-24T22:23:07.391Z,98846.00
2022-12-24T22:25:55.103Z,98847.00
2022-12-24T22:28:43.320Z,98858.00
2022-12-24T22:31:32.732Z,98866.00
2022-12-24T22:34:20.529Z,98869.00
2022-12-24T22:37:08.426Z,98864.00
2022-12-24T22:39:56.144Z,98861.00
2022-12-24T22:42:43.913Z,98864.00
2022-12-24T22:45:31.589Z,98854.00
2022-12-24T22:48:19.427Z,98847.00
2022-12-24T22:51:13.284Z,98853.00
2022-12-24T22:54:01.009Z,98864.00
2022-12-24T22:56:48.703Z,98864.00
2022-12-24T22:59:37.259Z,98859.00
2022-12-24T23:02:28.510Z,98860.00
2022-12-24T23:05:17.478Z,98873.00
2022-12-24T23:08:07.642Z,98867.00
2022-12-24T23:11:13.032Z,98864.00
2022-12-24T23:14:19.245Z,98878.00
2022-12-24T23:17:09.698Z,98893.00
2022-12-24T23:19:57.385Z,98898.00
2022-12-24T23:22:45.003Z,98899.00
2022-12-24T23:25:33.164Z,98897.00
2022-12-24T23:28:20.740Z,98893.00
2022-12-24T23:31:09.619Z,98900.00
2022-12-24T23:33:57.743Z,98886.00
2022-12-24T23:36:45.381Z,98880.00
2022-12-24T23:39:33.118Z,98886.00
2022-12-24T23:42:20.636Z,98893.00
2022-12-24T23:45:09.366Z,98886.00
2022-12-24T23:47:57.100Z,98891.00
2022-12-24T23:50:46.932Z,98887.00
2022-12-24T23:53:35.123Z,98897.00
2022-12-24T23:56:25.314Z,98909.00
2022-12-24T23:59:12.962Z,98901.00
